sensor_id;sensor_type;location;lat;lon;timestamp;P1;durP1;ratioP1;P2;durP2;ratioP2
11777;SDS011;5946;51.770;8.548;2023-03-01T00:02:18;12.50;;;8.50;;
11777;SDS011;5946;51.770;8.548;2023-03-01T00:04:44;14.13;;;9.13;;
11777;SDS011;5946;51.770;8.548;2023-03-01T00:07:10;14.30;;;8.97;;
11777;SDS011;5946;51.770;8.548;2023-03-01T00:09:36;12.73;;;9.00;;
11777;SDS011;5946;51.770;8.548;2023-03-01T00:12:03;13.60;;;8.77;;
11777;SDS011;5946;51.770;8.548;2023-03-01T00:14:29;14.07;;;9.00;;
11777;SDS011;5946;51.770;8.548;2023-03-01T00:16:55;13.57;;;9.37;;
11777;SDS011;5946;51.770;8.548;2023-03-01T00:19:21;13.33;;;8.73;;
11777;SDS011;5946;51.770;8.548;2023-03-01T00:21:47;14.63;;;8.97;;
11777;SDS011;5946;51.770;8.548;2023-03-01T00:24:13;13.47;;;8.50;;
11777;SDS011;5946;51.770;8.548;2023-03-01T00:26:39;12.67;;;8.87;;
11777;SDS011;5946;51.770;8.548;2023-03-01T00:29:05;15.33;;;9.03;;
11777;SDS011;5946;51.770;8.548;2023-03-01T00:31:32;13.50;;;8.63;;
11777;SDS011;5946;51.770;8.548;2023-03-01T00:33:59;12.67;;;8.97;;
11777;SDS011;5946;51.770;8.548;2023-03-01T00:36:26;13.40;;;8.80;;
11777;SDS011;5946;51.770;8.548;2023-03-01T00:38:52;14.17;;;9.13;;
11777;SDS011;5946;51.770;8.548;2023-03-01T00:41:19;12.57;;;8.90;;
11777;SDS011;5946;51.770;8.548;2023-03-01T00:43:45;13.30;;;8.83;;
11777;SDS011;5946;51.770;8.548;2023-03-01T00:46:12;14.40;;;9.13;;
11777;SDS011;5946;51.770;8.548;2023-03-01T00:48:38;14.77;;;9.47;;
11777;SDS011;5946;51.770;8.548;2023-03-01T00:51:05;14.07;;;9.27;;
11777;SDS011;5946;51.770;8.548;2023-03-01T00:53:31;12.53;;;8.40;;
11777;SDS011;5946;51.770;8.548;2023-03-01T00:55:57;15.03;;;9.17;;
11777;SDS011;5946;51.770;8.548;2023-03-01T00:58:23;15.27;;;9.50;;
11777;SDS011;5946;51.770;8.548;2023-03-01T01:00:49;12.20;;;8.47;;
11777;SDS011;5946;51.770;8.548;2023-03-01T01:03:18;13.27;;;9.00;;
11777;SDS011;5946;51.770;8.548;2023-03-01T01:05:44;13.00;;;8.43;;
11777;SDS011;5946;51.770;8.548;2023-03-01T01:08:11;15.63;;;9.07;;
11777;SDS011;5946;51.770;8.548;2023-03-01T01:10:37;13.93;;;9.40;;
11777;SDS011;5946;51.770;8.548;2023-03-01T01:13:03;15.43;;;8.73;;
11777;SDS011;5946;51.770;8.548;2023-03-01T01:15:31;15.07;;;9.47;;
11777;SDS011;5946;51.770;8.548;2023-03-01T01:17:58;15.77;;;9.47;;
11777;SDS011;5946;51.770;8.548;2023-03-01T01:20:24;14.23;;;9.50;;
11777;SDS011;5946;51.770;8.548;2023-03-01T01:22:50;13.80;;;9.20;;
11777;SDS011;5946;51.770;8.548;2023-03-01T01:25:16;14.83;;;9.33;;
11777;SDS011;5946;51.770;8.548;2023-03-01T01:27:42;15.10;;;8.83;;
11777;SDS011;5946;51.770;8.548;2023-03-01T01:30:08;16.10;;;10.07;;
11777;SDS011;5946;51.770;8.548;2023-03-01T01:32:34;14.37;;;9.27;;
11777;SDS011;5946;51.770;8.548;2023-03-01T01:35:00;15.87;;;9.07;;
11777;SDS011;5946;51.770;8.548;2023-03-01T01:37:26;13.37;;;9.00;;
11777;SDS011;5946;51.770;8.548;2023-03-01T01:39:56;12.40;;;8.97;;
11777;SDS011;5946;51.770;8.548;2023-03-01T01:42:23;11.73;;;8.43;;
11777;SDS011;5946;51.770;8.548;2023-03-01T01:45:15;12.00;;;8.60;;
11777;SDS011;5946;51.770;8.548;2023-03-01T01:47:34;14.47;;;8.77;;
11777;SDS011;5946;51.770;8.548;2023-03-01T01:50:00;15.03;;;9.40;;
11777;SDS011;5946;51.770;8.548;2023-03-01T01:52:27;14.43;;;8.73;;
11777;SDS011;5946;51.770;8.548;2023-03-01T01:55:11;15.43;;;8.90;;
11777;SDS011;5946;51.770;8.548;2023-03-01T01:57:41;11.83;;;8.47;;
11777;SDS011;5946;51.770;8.548;2023-03-01T02:00:13;14.27;;;8.87;;
11777;SDS011;5946;51.770;8.548;2023-03-01T02:02:39;15.07;;;8.57;;
11777;SDS011;5946;51.770;8.548;2023-03-01T02:07:42;14.20;;;8.80;;
11777;SDS011;5946;51.770;8.548;2023-03-01T02:10:09;15.43;;;8.43;;
11777;SDS011;5946;51.770;8.548;2023-03-01T02:12:35;11.77;;;8.20;;
11777;SDS011;5946;51.770;8.548;2023-03-01T02:15:01;12.47;;;7.97;;
11777;SDS011;5946;51.770;8.548;2023-03-01T02:17:27;12.80;;;8.33;;
11777;SDS011;5946;51.770;8.548;2023-03-01T02:19:57;13.47;;;8.57;;
11777;SDS011;5946;51.770;8.548;2023-03-01T02:22:30;13.67;;;8.20;;
11777;SDS011;5946;51.770;8.548;2023-03-01T02:27:44;11.13;;;7.87;;
11777;SDS011;5946;51.770;8.548;2023-03-01T02:30:15;16.47;;;8.93;;
11777;SDS011;5946;51.770;8.548;2023-03-01T02:32:41;18.90;;;9.23;;
11777;SDS011;5946;51.770;8.548;2023-03-01T02:35:09;13.90;;;8.60;;
11777;SDS011;5946;51.770;8.548;2023-03-01T02:37:36;14.23;;;8.50;;
11777;SDS011;5946;51.770;8.548;2023-03-01T02:40:03;14.73;;;9.37;;
11777;SDS011;5946;51.770;8.548;2023-03-01T02:42:32;15.70;;;9.77;;
11777;SDS011;5946;51.770;8.548;2023-03-01T02:44:59;15.53;;;10.17;;
11777;SDS011;5946;51.770;8.548;2023-03-01T02:47:25;15.53;;;9.63;;
11777;SDS011;5946;51.770;8.548;2023-03-01T02:49:51;16.47;;;9.07;;
11777;SDS011;5946;51.770;8.548;2023-03-01T02:52:21;14.60;;;9.90;;
11777;SDS011;5946;51.770;8.548;2023-03-01T02:54:55;14.10;;;9.60;;
11777;SDS011;5946;51.770;8.548;2023-03-01T02:57:21;14.80;;;9.63;;
11777;SDS011;5946;51.770;8.548;2023-03-01T02:59:48;14.07;;;9.03;;
11777;SDS011;5946;51.770;8.548;2023-03-01T03:02:25;15.83;;;9.50;;
11777;SDS011;5946;51.770;8.548;2023-03-01T03:05:22;12.93;;;8.23;;
11777;SDS011;5946;51.770;8.548;2023-03-01T03:07:47;13.83;;;8.57;;
11777;SDS011;5946;51.770;8.548;2023-03-01T03:10:18;13.10;;;9.00;;
11777;SDS011;5946;51.770;8.548;2023-03-01T03:12:48;15.27;;;9.10;;
11777;SDS011;5946;51.770;8.548;2023-03-01T03:15:15;14.67;;;9.00;;
11777;SDS011;5946;51.770;8.548;2023-03-01T03:17:41;13.77;;;8.80;;
11777;SDS011;5946;51.770;8.548;2023-03-01T03:20:08;15.83;;;8.77;;
11777;SDS011;5946;51.770;8.548;2023-03-01T03:22:37;16.40;;;10.20;;
11777;SDS011;5946;51.770;8.548;2023-03-01T03:25:04;16.50;;;9.07;;
11777;SDS011;5946;51.770;8.548;2023-03-01T03:27:30;15.47;;;8.97;;
11777;SDS011;5946;51.770;8.548;2023-03-01T03:29:56;15.27;;;9.40;;
11777;SDS011;5946;51.770;8.548;2023-03-01T03:32:22;14.83;;;9.80;;
11777;SDS011;5946;51.770;8.548;2023-03-01T03:34:48;14.57;;;9.33;;
11777;SDS011;5946;51.770;8.548;2023-03-01T03:37:14;15.90;;;9.13;;
11777;SDS011;5946;51.770;8.548;2023-03-01T03:39:59;16.57;;;9.70;;
11777;SDS011;5946;51.770;8.548;2023-03-01T03:42:25;16.70;;;10.00;;
11777;SDS011;5946;51.770;8.548;2023-03-01T03:44:50;13.53;;;9.10;;
11777;SDS011;5946;51.770;8.548;2023-03-01T03:47:16;14.30;;;8.70;;
11777;SDS011;5946;51.770;8.548;2023-03-01T03:49:42;14.10;;;9.63;;
11777;SDS011;5946;51.770;8.548;2023-03-01T03:52:08;12.67;;;8.50;;
11777;SDS011;5946;51.770;8.548;2023-03-01T03:54:38;17.00;;;9.90;;
11777;SDS011;5946;51.770;8.548;2023-03-01T03:57:04;15.33;;;9.13;;
11777;SDS011;5946;51.770;8.548;2023-03-01T03:59:30;14.00;;;9.00;;
11777;SDS011;5946;51.770;8.548;2023-03-01T04:01:56;16.50;;;9.23;;
11777;SDS011;5946;51.770;8.548;2023-03-01T04:04:22;14.70;;;9.23;;
11777;SDS011;5946;51.770;8.548;2023-03-01T04:06:48;11.97;;;8.43;;
11777;SDS011;5946;51.770;8.548;2023-03-01T04:09:14;14.37;;;8.70;;
11777;SDS011;5946;51.770;8.548;2023-03-01T04:11:40;13.60;;;8.97;;
11777;SDS011;5946;51.770;8.548;2023-03-01T04:14:06;13.70;;;8.67;;
11777;SDS011;5946;51.770;8.548;2023-03-01T04:16:32;14.43;;;8.70;;
11777;SDS011;5946;51.770;8.548;2023-03-01T04:18:58;14.10;;;8.97;;
11777;SDS011;5946;51.770;8.548;2023-03-01T04:21:25;14.53;;;9.17;;
11777;SDS011;5946;51.770;8.548;2023-03-01T04:23:51;13.70;;;9.07;;
11777;SDS011;5946;51.770;8.548;2023-03-01T04:26:17;15.47;;;9.37;;
11777;SDS011;5946;51.770;8.548;2023-03-01T04:28:43;13.97;;;8.93;;
11777;SDS011;5946;51.770;8.548;2023-03-01T04:31:11;14.57;;;8.90;;
11777;SDS011;5946;51.770;8.548;2023-03-01T04:33:38;14.77;;;8.73;;
11777;SDS011;5946;51.770;8.548;2023-03-01T04:36:05;15.30;;;9.27;;
11777;SDS011;5946;51.770;8.548;2023-03-01T04:38:33;13.20;;;8.70;;
11777;SDS011;5946;51.770;8.548;2023-03-01T04:40:59;17.37;;;9.60;;
11777;SDS011;5946;51.770;8.548;2023-03-01T04:43:28;13.23;;;8.10;;
11777;SDS011;5946;51.770;8.548;2023-03-01T04:45:54;15.50;;;8.90;;
11777;SDS011;5946;51.770;8.548;2023-03-01T04:48:20;14.10;;;8.43;;
11777;SDS011;5946;51.770;8.548;2023-03-01T04:50:46;15.93;;;9.83;;
11777;SDS011;5946;51.770;8.548;2023-03-01T04:53:11;14.47;;;9.07;;
11777;SDS011;5946;51.770;8.548;2023-03-01T04:55:37;14.17;;;8.87;;
11777;SDS011;5946;51.770;8.548;2023-03-01T04:58:03;13.13;;;8.63;;
11777;SDS011;5946;51.770;8.548;2023-03-01T05:00:29;14.33;;;8.70;;
11777;SDS011;5946;51.770;8.548;2023-03-01T05:02:56;14.30;;;8.53;;
11777;SDS011;5946;51.770;8.548;2023-03-01T05:05:24;19.50;;;9.10;;
11777;SDS011;5946;51.770;8.548;2023-03-01T05:07:51;16.23;;;8.63;;
11777;SDS011;5946;51.770;8.548;2023-03-01T05:10:18;14.57;;;8.67;;
11777;SDS011;5946;51.770;8.548;2023-03-01T05:12:44;15.47;;;9.00;;
11777;SDS011;5946;51.770;8.548;2023-03-01T05:15:09;13.87;;;8.93;;
11777;SDS011;5946;51.770;8.548;2023-03-01T05:17:35;17.57;;;8.73;;
11777;SDS011;5946;51.770;8.548;2023-03-01T05:20:02;14.10;;;8.50;;
11777;SDS011;5946;51.770;8.548;2023-03-01T05:22:32;13.50;;;8.50;;
11777;SDS011;5946;51.770;8.548;2023-03-01T05:24:58;13.80;;;8.23;;
11777;SDS011;5946;51.770;8.548;2023-03-01T05:27:24;13.80;;;9.10;;
11777;SDS011;5946;51.770;8.548;2023-03-01T05:29:50;14.97;;;8.83;;
11777;SDS011;5946;51.770;8.548;2023-03-01T05:32:16;15.47;;;8.97;;
11777;SDS011;5946;51.770;8.548;2023-03-01T05:34:42;16.10;;;9.33;;
11777;SDS011;5946;51.770;8.548;2023-03-01T05:37:09;12.90;;;8.03;;
11777;SDS011;5946;51.770;8.548;2023-03-01T05:39:35;17.90;;;8.43;;
11777;SDS011;5946;51.770;8.548;2023-03-01T05:42:01;13.40;;;8.50;;
11777;SDS011;5946;51.770;8.548;2023-03-01T05:44:28;13.13;;;8.13;;
11777;SDS011;5946;51.770;8.548;2023-03-01T05:46:54;15.03;;;9.07;;
11777;SDS011;5946;51.770;8.548;2023-03-01T05:49:21;13.53;;;9.40;;
11777;SDS011;5946;51.770;8.548;2023-03-01T05:51:51;14.13;;;8.77;;
11777;SDS011;5946;51.770;8.548;2023-03-01T05:54:18;17.47;;;9.17;;
11777;SDS011;5946;51.770;8.548;2023-03-01T05:56:44;16.10;;;9.00;;
11777;SDS011;5946;51.770;8.548;2023-03-01T05:59:10;16.00;;;9.50;;
11777;SDS011;5946;51.770;8.548;2023-03-01T06:01:36;15.80;;;9.70;;
11777;SDS011;5946;51.770;8.548;2023-03-01T06:04:03;14.97;;;9.37;;
11777;SDS011;5946;51.770;8.548;2023-03-01T06:06:29;18.40;;;10.70;;
11777;SDS011;5946;51.770;8.548;2023-03-01T06:08:55;16.67;;;9.40;;
11777;SDS011;5946;51.770;8.548;2023-03-01T06:11:21;15.07;;;9.60;;
11777;SDS011;5946;51.770;8.548;2023-03-01T06:13:47;20.43;;;11.53;;
11777;SDS011;5946;51.770;8.548;2023-03-01T06:16:14;50.17;;;27.27;;
11777;SDS011;5946;51.770;8.548;2023-03-01T06:18:40;56.37;;;31.73;;
11777;SDS011;5946;51.770;8.548;2023-03-01T06:21:06;39.27;;;21.57;;
11777;SDS011;5946;51.770;8.548;2023-03-01T06:23:33;84.90;;;49.00;;
11777;SDS011;5946;51.770;8.548;2023-03-01T06:25:59;127.90;;;72.60;;
11777;SDS011;5946;51.770;8.548;2023-03-01T06:28:25;117.67;;;63.63;;
11777;SDS011;5946;51.770;8.548;2023-03-01T06:30:51;99.70;;;54.30;;
11777;SDS011;5946;51.770;8.548;2023-03-01T06:33:18;87.07;;;44.30;;
11777;SDS011;5946;51.770;8.548;2023-03-01T06:35:45;79.03;;;37.00;;
11777;SDS011;5946;51.770;8.548;2023-03-01T06:38:11;53.83;;;26.60;;
11777;SDS011;5946;51.770;8.548;2023-03-01T06:40:40;48.93;;;30.90;;
11777;SDS011;5946;51.770;8.548;2023-03-01T06:43:06;39.77;;;25.30;;
11777;SDS011;5946;51.770;8.548;2023-03-01T06:45:32;38.40;;;25.33;;
11777;SDS011;5946;51.770;8.548;2023-03-01T06:48:03;29.67;;;19.43;;
11777;SDS011;5946;51.770;8.548;2023-03-01T06:50:29;27.37;;;18.80;;
11777;SDS011;5946;51.770;8.548;2023-03-01T06:52:55;24.50;;;16.80;;
11777;SDS011;5946;51.770;8.548;2023-03-01T06:55:22;31.93;;;21.67;;
11777;SDS011;5946;51.770;8.548;2023-03-01T06:57:48;30.97;;;20.33;;
11777;SDS011;5946;51.770;8.548;2023-03-01T07:00:14;26.73;;;17.33;;
11777;SDS011;5946;51.770;8.548;2023-03-01T07:02:40;28.67;;;18.87;;
11777;SDS011;5946;51.770;8.548;2023-03-01T07:05:06;38.13;;;27.53;;
11777;SDS011;5946;51.770;8.548;2023-03-01T07:07:32;42.73;;;24.83;;
11777;SDS011;5946;51.770;8.548;2023-03-01T07:09:58;31.33;;;18.23;;
11777;SDS011;5946;51.770;8.548;2023-03-01T07:12:24;54.03;;;28.43;;
11777;SDS011;5946;51.770;8.548;2023-03-01T07:14:50;32.23;;;17.63;;
11777;SDS011;5946;51.770;8.548;2023-03-01T07:17:16;48.33;;;33.60;;
11777;SDS011;5946;51.770;8.548;2023-03-01T07:19:42;61.73;;;43.63;;
11777;SDS011;5946;51.770;8.548;2023-03-01T07:22:08;71.00;;;43.97;;
11777;SDS011;5946;51.770;8.548;2023-03-01T07:24:34;71.47;;;48.83;;
11777;SDS011;5946;51.770;8.548;2023-03-01T07:27:00;61.90;;;42.93;;
11777;SDS011;5946;51.770;8.548;2023-03-01T07:29:26;31.87;;;22.00;;
11777;SDS011;5946;51.770;8.548;2023-03-01T07:31:53;20.97;;;14.07;;
11777;SDS011;5946;51.770;8.548;2023-03-01T07:34:19;23.17;;;12.20;;
11777;SDS011;5946;51.770;8.548;2023-03-01T07:36:45;18.67;;;12.00;;
11777;SDS011;5946;51.770;8.548;2023-03-01T07:39:12;18.53;;;11.93;;
11777;SDS011;5946;51.770;8.548;2023-03-01T07:41:38;20.70;;;12.00;;
11777;SDS011;5946;51.770;8.548;2023-03-01T07:44:04;22.33;;;11.70;;
11777;SDS011;5946;51.770;8.548;2023-03-01T07:46:30;20.00;;;12.40;;
11777;SDS011;5946;51.770;8.548;2023-03-01T07:48:56;19.97;;;11.93;;
11777;SDS011;5946;51.770;8.548;2023-03-01T07:51:23;18.73;;;12.07;;
11777;SDS011;5946;51.770;8.548;2023-03-01T07:53:49;22.03;;;11.90;;
11777;SDS011;5946;51.770;8.548;2023-03-01T07:56:15;17.63;;;11.70;;
11777;SDS011;5946;51.770;8.548;2023-03-01T07:58:43;18.97;;;11.80;;
11777;SDS011;5946;51.770;8.548;2023-03-01T08:01:11;19.73;;;12.17;;
11777;SDS011;5946;51.770;8.548;2023-03-01T08:03:37;16.63;;;11.50;;
11777;SDS011;5946;51.770;8.548;2023-03-01T08:06:03;17.23;;;10.90;;
11777;SDS011;5946;51.770;8.548;2023-03-01T08:08:30;14.93;;;10.37;;
11777;SDS011;5946;51.770;8.548;2023-03-01T08:10:56;19.33;;;11.97;;
11777;SDS011;5946;51.770;8.548;2023-03-01T08:13:23;16.30;;;10.87;;
11777;SDS011;5946;51.770;8.548;2023-03-01T08:15:49;16.87;;;10.90;;
11777;SDS011;5946;51.770;8.548;2023-03-01T08:18:18;18.23;;;10.90;;
11777;SDS011;5946;51.770;8.548;2023-03-01T08:20:44;18.83;;;11.63;;
11777;SDS011;5946;51.770;8.548;2023-03-01T08:23:10;20.17;;;11.27;;
11777;SDS011;5946;51.770;8.548;2023-03-01T08:25:36;19.13;;;11.60;;
11777;SDS011;5946;51.770;8.548;2023-03-01T08:28:02;21.63;;;12.00;;
11777;SDS011;5946;51.770;8.548;2023-03-01T08:30:28;16.87;;;11.23;;
11777;SDS011;5946;51.770;8.548;2023-03-01T08:32:54;18.10;;;11.30;;
11777;SDS011;5946;51.770;8.548;2023-03-01T08:35:20;17.13;;;11.63;;
11777;SDS011;5946;51.770;8.548;2023-03-01T08:37:47;15.60;;;10.83;;
11777;SDS011;5946;51.770;8.548;2023-03-01T08:40:13;18.47;;;11.63;;
11777;SDS011;5946;51.770;8.548;2023-03-01T08:42:39;18.33;;;10.90;;
11777;SDS011;5946;51.770;8.548;2023-03-01T08:45:05;15.80;;;10.47;;
11777;SDS011;5946;51.770;8.548;2023-03-01T08:47:31;14.53;;;9.97;;
11777;SDS011;5946;51.770;8.548;2023-03-01T08:49:58;15.57;;;10.13;;
11777;SDS011;5946;51.770;8.548;2023-03-01T08:52:24;21.57;;;10.77;;
11777;SDS011;5946;51.770;8.548;2023-03-01T08:54:50;15.00;;;10.10;;
11777;SDS011;5946;51.770;8.548;2023-03-01T08:57:16;17.60;;;10.67;;
11777;SDS011;5946;51.770;8.548;2023-03-01T08:59:42;15.10;;;9.80;;
11777;SDS011;5946;51.770;8.548;2023-03-01T09:02:12;14.73;;;9.93;;
11777;SDS011;5946;51.770;8.548;2023-03-01T09:04:38;15.97;;;9.47;;
11777;SDS011;5946;51.770;8.548;2023-03-01T09:07:04;14.70;;;10.10;;
11777;SDS011;5946;51.770;8.548;2023-03-01T09:09:30;15.63;;;8.70;;
11777;SDS011;5946;51.770;8.548;2023-03-01T09:11:56;16.97;;;10.90;;
11777;SDS011;5946;51.770;8.548;2023-03-01T09:14:22;16.57;;;9.13;;
11777;SDS011;5946;51.770;8.548;2023-03-01T09:16:48;15.23;;;9.77;;
11777;SDS011;5946;51.770;8.548;2023-03-01T09:19:15;14.33;;;9.63;;
11777;SDS011;5946;51.770;8.548;2023-03-01T09:21:41;15.23;;;9.37;;
11777;SDS011;5946;51.770;8.548;2023-03-01T09:24:16;13.80;;;9.13;;
11777;SDS011;5946;51.770;8.548;2023-03-01T09:26:42;13.70;;;9.17;;
11777;SDS011;5946;51.770;8.548;2023-03-01T09:29:11;12.87;;;8.60;;
11777;SDS011;5946;51.770;8.548;2023-03-01T09:31:37;12.60;;;8.00;;
11777;SDS011;5946;51.770;8.548;2023-03-01T09:34:03;12.20;;;8.57;;
11777;SDS011;5946;51.770;8.548;2023-03-01T09:36:29;12.87;;;8.70;;
11777;SDS011;5946;51.770;8.548;2023-03-01T09:38:55;11.93;;;8.17;;
11777;SDS011;5946;51.770;8.548;2023-03-01T09:46:18;11.93;;;8.53;;
11777;SDS011;5946;51.770;8.548;2023-03-01T09:48:46;15.33;;;9.10;;
11777;SDS011;5946;51.770;8.548;2023-03-01T09:51:18;13.73;;;8.57;;
11777;SDS011;5946;51.770;8.548;2023-03-01T09:53:45;12.03;;;8.43;;
11777;SDS011;5946;51.770;8.548;2023-03-01T10:01:38;13.07;;;8.13;;
11777;SDS011;5946;51.770;8.548;2023-03-01T10:06:32;16.20;;;8.23;;
11777;SDS011;5946;51.770;8.548;2023-03-01T10:09:00;11.97;;;7.57;;
11777;SDS011;5946;51.770;8.548;2023-03-01T10:11:30;12.47;;;8.33;;
11777;SDS011;5946;51.770;8.548;2023-03-01T10:19:06;10.20;;;7.00;;
11777;SDS011;5946;51.770;8.548;2023-03-01T10:21:37;10.57;;;7.23;;
11777;SDS011;5946;51.770;8.548;2023-03-01T10:24:10;10.40;;;7.23;;
11777;SDS011;5946;51.770;8.548;2023-03-01T10:29:08;11.13;;;7.83;;
11777;SDS011;5946;51.770;8.548;2023-03-01T10:34:11;9.73;;;7.00;;
11777;SDS011;5946;51.770;8.548;2023-03-01T10:36:38;9.57;;;6.73;;
11777;SDS011;5946;51.770;8.548;2023-03-01T10:39:10;14.60;;;8.47;;
11777;SDS011;5946;51.770;8.548;2023-03-01T10:41:37;17.07;;;12.23;;
11777;SDS011;5946;51.770;8.548;2023-03-01T10:44:10;17.70;;;13.70;;
11777;SDS011;5946;51.770;8.548;2023-03-01T10:46:59;23.90;;;17.30;;
11777;SDS011;5946;51.770;8.548;2023-03-01T10:49:26;15.10;;;10.27;;
11777;SDS011;5946;51.770;8.548;2023-03-01T10:51:53;13.87;;;10.00;;
11777;SDS011;5946;51.770;8.548;2023-03-01T10:54:29;16.73;;;11.77;;
11777;SDS011;5946;51.770;8.548;2023-03-01T10:56:56;23.13;;;15.53;;
11777;SDS011;5946;51.770;8.548;2023-03-01T10:59:30;23.93;;;14.23;;
11777;SDS011;5946;51.770;8.548;2023-03-01T11:04:35;37.53;;;22.30;;
11777;SDS011;5946;51.770;8.548;2023-03-01T11:07:01;36.40;;;22.37;;
11777;SDS011;5946;51.770;8.548;2023-03-01T11:09:31;17.07;;;9.90;;
11777;SDS011;5946;51.770;8.548;2023-03-01T11:12:02;20.87;;;14.03;;
11777;SDS011;5946;51.770;8.548;2023-03-01T11:14:33;12.27;;;8.50;;
11777;SDS011;5946;51.770;8.548;2023-03-01T11:17:05;9.10;;;6.57;;
11777;SDS011;5946;51.770;8.548;2023-03-01T11:19:31;10.20;;;7.10;;
11777;SDS011;5946;51.770;8.548;2023-03-01T11:24:33;12.93;;;8.67;;
11777;SDS011;5946;51.770;8.548;2023-03-01T11:27:01;11.80;;;7.17;;
11777;SDS011;5946;51.770;8.548;2023-03-01T11:29:41;10.87;;;6.60;;
11777;SDS011;5946;51.770;8.548;2023-03-01T11:32:09;9.53;;;6.83;;
11777;SDS011;5946;51.770;8.548;2023-03-01T11:34:57;10.47;;;6.50;;
11777;SDS011;5946;51.770;8.548;2023-03-01T11:37:30;8.47;;;6.20;;
11777;SDS011;5946;51.770;8.548;2023-03-01T11:39:59;10.67;;;6.80;;
11777;SDS011;5946;51.770;8.548;2023-03-01T11:42:40;10.20;;;7.37;;
11777;SDS011;5946;51.770;8.548;2023-03-01T11:45:10;10.20;;;7.60;;
11777;SDS011;5946;51.770;8.548;2023-03-01T11:50:11;11.07;;;7.57;;
11777;SDS011;5946;51.770;8.548;2023-03-01T11:55:19;12.00;;;7.20;;
11777;SDS011;5946;51.770;8.548;2023-03-01T11:58:07;12.20;;;7.13;;
11777;SDS011;5946;51.770;8.548;2023-03-01T12:00:41;10.10;;;7.00;;
11777;SDS011;5946;51.770;8.548;2023-03-01T12:05:52;9.43;;;6.30;;
11777;SDS011;5946;51.770;8.548;2023-03-01T12:08:38;13.03;;;7.20;;
11777;SDS011;5946;51.770;8.548;2023-03-01T12:11:10;10.53;;;7.43;;
11777;SDS011;5946;51.770;8.548;2023-03-01T12:19:01;9.70;;;6.87;;
11777;SDS011;5946;51.770;8.548;2023-03-01T12:29:23;8.73;;;6.13;;
11777;SDS011;5946;51.770;8.548;2023-03-01T12:32:00;10.73;;;7.10;;
11777;SDS011;5946;51.770;8.548;2023-03-01T12:39:41;9.50;;;6.70;;
11777;SDS011;5946;51.770;8.548;2023-03-01T12:42:17;9.70;;;7.40;;
11777;SDS011;5946;51.770;8.548;2023-03-01T12:44:51;11.10;;;6.50;;
11777;SDS011;5946;51.770;8.548;2023-03-01T12:49:57;8.57;;;6.03;;
11777;SDS011;5946;51.770;8.548;2023-03-01T12:54:54;9.40;;;6.20;;
11777;SDS011;5946;51.770;8.548;2023-03-01T12:57:26;9.13;;;6.30;;
11777;SDS011;5946;51.770;8.548;2023-03-01T13:02:51;10.47;;;6.40;;
11777;SDS011;5946;51.770;8.548;2023-03-01T13:17:56;8.27;;;5.87;;
11777;SDS011;5946;51.770;8.548;2023-03-01T13:20:27;10.03;;;6.20;;
11777;SDS011;5946;51.770;8.548;2023-03-01T13:23:13;9.03;;;6.30;;
11777;SDS011;5946;51.770;8.548;2023-03-01T13:31:01;12.20;;;7.97;;
11777;SDS011;5946;51.770;8.548;2023-03-01T13:35:53;11.60;;;6.53;;
11777;SDS011;5946;51.770;8.548;2023-03-01T13:38:39;14.73;;;8.50;;
11777;SDS011;5946;51.770;8.548;2023-03-01T13:41:10;9.97;;;5.90;;
11777;SDS011;5946;51.770;8.548;2023-03-01T13:43:37;11.83;;;7.10;;
11777;SDS011;5946;51.770;8.548;2023-03-01T13:46:17;30.07;;;17.57;;
11777;SDS011;5946;51.770;8.548;2023-03-01T13:48:45;14.47;;;10.27;;
11777;SDS011;5946;51.770;8.548;2023-03-01T13:51:13;23.57;;;8.53;;
11777;SDS011;5946;51.770;8.548;2023-03-01T13:53:41;23.20;;;17.17;;
11777;SDS011;5946;51.770;8.548;2023-03-01T13:56:09;9.90;;;5.60;;
11777;SDS011;5946;51.770;8.548;2023-03-01T13:58:50;10.83;;;7.33;;
11777;SDS011;5946;51.770;8.548;2023-03-01T14:03:46;11.67;;;6.43;;
11777;SDS011;5946;51.770;8.548;2023-03-01T14:06:14;11.37;;;7.27;;
11777;SDS011;5946;51.770;8.548;2023-03-01T14:08:44;15.03;;;7.23;;
11777;SDS011;5946;51.770;8.548;2023-03-01T14:11:30;12.17;;;8.00;;
11777;SDS011;5946;51.770;8.548;2023-03-01T14:14:21;9.07;;;6.00;;
11777;SDS011;5946;51.770;8.548;2023-03-01T14:19:35;10.73;;;7.50;;
11777;SDS011;5946;51.770;8.548;2023-03-01T14:24:40;10.40;;;5.37;;
11777;SDS011;5946;51.770;8.548;2023-03-01T14:27:11;7.33;;;5.20;;
11777;SDS011;5946;51.770;8.548;2023-03-01T14:29:38;9.33;;;5.23;;
11777;SDS011;5946;51.770;8.548;2023-03-01T14:32:08;8.70;;;5.03;;
11777;SDS011;5946;51.770;8.548;2023-03-01T14:34:34;10.03;;;7.00;;
11777;SDS011;5946;51.770;8.548;2023-03-01T14:37:10;10.00;;;6.13;;
11777;SDS011;5946;51.770;8.548;2023-03-01T14:39:36;6.50;;;4.97;;
11777;SDS011;5946;51.770;8.548;2023-03-01T14:42:03;8.43;;;5.60;;
11777;SDS011;5946;51.770;8.548;2023-03-01T14:44:30;9.07;;;5.93;;
11777;SDS011;5946;51.770;8.548;2023-03-01T14:46:58;8.10;;;5.53;;
11777;SDS011;5946;51.770;8.548;2023-03-01T14:49:28;8.57;;;5.20;;
11777;SDS011;5946;51.770;8.548;2023-03-01T14:52:02;7.57;;;5.47;;
11777;SDS011;5946;51.770;8.548;2023-03-01T14:56:58;8.30;;;5.43;;
11777;SDS011;5946;51.770;8.548;2023-03-01T14:59:25;7.90;;;5.17;;
11777;SDS011;5946;51.770;8.548;2023-03-01T15:01:51;6.87;;;5.23;;
11777;SDS011;5946;51.770;8.548;2023-03-01T15:04:18;7.97;;;5.83;;
11777;SDS011;5946;51.770;8.548;2023-03-01T15:06:45;9.13;;;5.50;;
11777;SDS011;5946;51.770;8.548;2023-03-01T15:09:13;9.77;;;5.97;;
11777;SDS011;5946;51.770;8.548;2023-03-01T15:11:40;7.90;;;5.37;;
11777;SDS011;5946;51.770;8.548;2023-03-01T15:16:53;16.80;;;9.57;;
11777;SDS011;5946;51.770;8.548;2023-03-01T15:19:19;15.57;;;8.93;;
11777;SDS011;5946;51.770;8.548;2023-03-01T15:21:46;8.57;;;6.17;;
11777;SDS011;5946;51.770;8.548;2023-03-01T15:24:23;8.47;;;6.17;;
11777;SDS011;5946;51.770;8.548;2023-03-01T15:26:54;8.50;;;5.93;;
11777;SDS011;5946;51.770;8.548;2023-03-01T15:29:23;9.40;;;6.20;;
11777;SDS011;5946;51.770;8.548;2023-03-01T15:31:55;10.20;;;6.60;;
11777;SDS011;5946;51.770;8.548;2023-03-01T15:34:22;7.57;;;5.90;;
11777;SDS011;5946;51.770;8.548;2023-03-01T15:36:49;8.97;;;6.07;;
11777;SDS011;5946;51.770;8.548;2023-03-01T15:39:30;8.43;;;5.90;;
11777;SDS011;5946;51.770;8.548;2023-03-01T15:42:02;7.77;;;5.97;;
11777;SDS011;5946;51.770;8.548;2023-03-01T15:44:29;8.10;;;5.70;;
11777;SDS011;5946;51.770;8.548;2023-03-01T15:46:55;8.90;;;5.93;;
11777;SDS011;5946;51.770;8.548;2023-03-01T15:49:26;8.47;;;5.80;;
11777;SDS011;5946;51.770;8.548;2023-03-01T15:51:54;8.23;;;6.20;;
11777;SDS011;5946;51.770;8.548;2023-03-01T15:54:24;8.20;;;6.13;;
11777;SDS011;5946;51.770;8.548;2023-03-01T15:56:50;10.00;;;5.50;;
11777;SDS011;5946;51.770;8.548;2023-03-01T15:59:17;7.40;;;5.90;;
11777;SDS011;5946;51.770;8.548;2023-03-01T16:01:43;8.93;;;5.73;;
11777;SDS011;5946;51.770;8.548;2023-03-01T16:04:10;7.77;;;5.90;;
11777;SDS011;5946;51.770;8.548;2023-03-01T16:06:38;11.40;;;7.27;;
11777;SDS011;5946;51.770;8.548;2023-03-01T16:09:04;9.93;;;7.23;;
11777;SDS011;5946;51.770;8.548;2023-03-01T16:11:30;13.17;;;7.50;;
11777;SDS011;5946;51.770;8.548;2023-03-01T16:13:57;13.00;;;8.07;;
11777;SDS011;5946;51.770;8.548;2023-03-01T16:16:23;12.70;;;8.53;;
11777;SDS011;5946;51.770;8.548;2023-03-01T16:18:49;9.63;;;7.23;;
11777;SDS011;5946;51.770;8.548;2023-03-01T16:21:21;10.23;;;7.00;;
11777;SDS011;5946;51.770;8.548;2023-03-01T16:23:47;9.47;;;7.27;;
11777;SDS011;5946;51.770;8.548;2023-03-01T16:26:13;8.70;;;6.87;;
11777;SDS011;5946;51.770;8.548;2023-03-01T16:28:40;8.83;;;6.57;;
11777;SDS011;5946;51.770;8.548;2023-03-01T16:31:06;9.03;;;6.50;;
11777;SDS011;5946;51.770;8.548;2023-03-01T16:33:32;7.80;;;6.50;;